createdAt,value
2018-11-26T00:02:04.056Z,20.79
2018-11-26T00:04:30.048Z,20.79
2018-11-26T00:06:55.999Z,20.80
2018-11-26T00:09:21.952Z,20.80
2018-11-26T00:11:47.930Z,20.76
2018-11-26T00:14:13.897Z,20.75
2018-11-26T00:16:39.861Z,20.74
2018-11-26T00:19:05.817Z,20.72
2018-11-26T00:21:31.828Z,20.71
2018-11-26T00:23:57.795Z,20.73
2018-11-26T00:26:23.744Z,20.74
2018-11-26T00:28:49.707Z,20.73
2018-11-26T00:31:15.687Z,20.72
2018-11-26T00:33:41.649Z,20.73
2018-11-26T00:36:07.625Z,20.73
2018-11-26T00:38:33.585Z,20.73
2018-11-26T00:40:59.568Z,20.74
2018-11-26T00:43:25.541Z,20.74
2018-11-26T00:45:51.489Z,20.75
2018-11-26T00:48:17.444Z,20.74
2018-11-26T00:50:43.400Z,20.74
2018-11-26T00:53:09.364Z,20.75
2018-11-26T00:55:35.312Z,20.72
2018-11-26T00:58:01.277Z,20.71
2018-11-26T01:00:27.222Z,20.70
2018-11-26T01:02:53.184Z,20.71
2018-11-26T01:05:19.234Z,20.71
2018-11-26T01:07:45.192Z,20.68
2018-11-26T01:10:11.148Z,20.69
2018-11-26T01:12:37.112Z,20.69
2018-11-26T01:15:03.078Z,20.67
2018-11-26T01:17:29.046Z,20.67
2018-11-26T01:19:55.000Z,20.68
2018-11-26T01:22:21.024Z,20.67
2018-11-26T01:24:46.972Z,20.68
2018-11-26T01:27:12.934Z,20.68
2018-11-26T01:29:38.871Z,20.69
2018-11-26T01:32:04.815Z,20.68
2018-11-26T01:34:30.755Z,20.68
2018-11-26T01:36:56.739Z,20.69
2018-11-26T01:39:22.704Z,20.69
2018-11-26T01:41:48.761Z,20.69
2018-11-26T01:44:14.781Z,20.67
2018-11-26T01:46:40.741Z,20.66
2018-11-26T01:49:06.689Z,20.67
2018-11-26T01:51:32.660Z,20.66
2018-11-26T01:53:58.611Z,20.66
2018-11-26T01:56:24.575Z,20.65
2018-11-26T01:58:50.548Z,20.65
2018-11-26T02:01:16.604Z,20.65
2018-11-26T02:03:42.596Z,20.62
2018-11-26T02:06:08.571Z,20.65
2018-11-26T02:08:34.528Z,20.65
2018-11-26T02:11:00.521Z,20.68
2018-11-26T02:13:26.468Z,20.70
2018-11-26T02:15:52.429Z,20.72
2018-11-26T02:18:18.380Z,20.72
2018-11-26T02:20:44.332Z,20.74
2018-11-26T02:23:10.332Z,20.74
2018-11-26T02:25:36.317Z,20.74
2018-11-26T02:28:02.338Z,20.74
2018-11-26T02:30:28.296Z,20.75
2018-11-26T02:32:54.258Z,20.76
2018-11-26T02:35:20.197Z,20.76
2018-11-26T02:37:46.188Z,20.74
2018-11-26T02:40:12.168Z,20.74
2018-11-26T02:42:38.113Z,20.73
2018-11-26T02:45:04.072Z,20.70
2018-11-26T02:47:30.026Z,20.66
2018-11-26T02:49:55.994Z,20.63
2018-11-26T02:52:21.945Z,20.62
2018-11-26T02:54:47.905Z,20.59
2018-11-26T02:57:13.874Z,20.57
2018-11-26T02:59:39.868Z,20.56
2018-11-26T03:02:05.877Z,20.59
2018-11-26T03:04:31.828Z,20.63
2018-11-26T03:06:57.781Z,20.63
2018-11-26T03:09:23.712Z,20.63
2018-11-26T03:11:49.687Z,20.61
2018-11-26T03:14:15.665Z,20.61
2018-11-26T03:16:41.633Z,20.61
2018-11-26T03:19:07.720Z,20.61
2018-11-26T03:21:33.697Z,20.60
2018-11-26T03:23:59.651Z,20.61
2018-11-26T03:26:25.631Z,20.62
2018-11-26T03:28:51.592Z,20.63
2018-11-26T03:31:17.554Z,20.65
2018-11-26T03:33:43.519Z,20.66
2018-11-26T03:36:09.462Z,20.66
2018-11-26T03:38:35.434Z,20.65
2018-11-26T03:41:01.377Z,20.66
2018-11-26T03:43:27.355Z,20.68
2018-11-26T03:45:53.304Z,20.70
2018-11-26T03:48:19.259Z,20.71
2018-11-26T03:50:45.225Z,20.71
2018-11-26T03:53:11.169Z,20.72
2018-11-26T03:55:37.134Z,20.75
2018-11-26T03:58:03.072Z,20.71
2018-11-26T04:00:29.025Z,20.73
2018-11-26T04:02:54.978Z,20.73
2018-11-26T04:05:21.012Z,20.72
2018-11-26T04:07:46.969Z,20.73
2018-11-26T04:10:12.926Z,20.73
2018-11-26T04:12:38.975Z,20.74
2018-11-26T04:15:04.943Z,20.75
2018-11-26T04:17:30.891Z,20.77
2018-11-26T04:19:56.845Z,20.74
2018-11-26T04:22:22.811Z,20.75
2018-11-26T04:24:48.771Z,20.75
2018-11-26T04:27:14.725Z,20.75
2018-11-26T04:29:40.709Z,20.76
2018-11-26T04:32:06.656Z,20.75
2018-11-26T04:34:32.613Z,20.76
2018-11-26T04:36:58.882Z,20.79
2018-11-26T04:39:24.544Z,20.79
2018-11-26T04:41:50.481Z,20.80
2018-11-26T04:44:16.443Z,20.81
2018-11-26T04:46:42.400Z,20.80
2018-11-26T04:49:08.380Z,20.79
2018-11-26T04:51:35.242Z,20.78
2018-11-26T04:54:01.281Z,20.79
2018-11-26T04:56:27.221Z,20.78
2018-11-26T04:58:53.173Z,20.77
2018-11-26T05:01:19.155Z,20.78
2018-11-26T05:03:45.107Z,20.78
2018-11-26T05:06:11.116Z,20.76
2018-11-26T05:08:37.136Z,20.74
2018-11-26T05:11:03.164Z,20.80
2018-11-26T05:13:29.195Z,20.78
2018-11-26T05:15:55.144Z,20.77
2018-11-26T05:18:21.717Z,20.79
2018-11-26T05:20:47.681Z,20.80
2018-11-26T05:23:13.634Z,20.80
2018-11-26T05:25:39.632Z,20.83
2018-11-26T05:28:05.704Z,20.83
2018-11-26T05:30:31.653Z,20.83
2018-11-26T05:32:57.613Z,20.84
2018-11-26T05:35:23.563Z,20.83
2018-11-26T05:37:49.524Z,20.80
2018-11-26T05:40:15.499Z,20.81
2018-11-26T05:42:41.448Z,20.79
2018-11-26T05:45:07.398Z,20.79
2018-11-26T05:47:33.365Z,20.79
2018-11-26T05:49:59.324Z,20.79
2018-11-26T05:52:25.277Z,20.80
2018-11-26T05:54:51.280Z,20.80
2018-11-26T05:57:17.314Z,20.79
2018-11-26T05:59:43.267Z,20.79
2018-11-26T06:02:09.225Z,20.79
2018-11-26T06:04:35.165Z,20.78
2018-11-26T06:07:01.108Z,20.76
2018-11-26T06:09:27.066Z,20.79
2018-11-26T06:11:53.011Z,20.82
2018-11-26T06:14:18.963Z,20.83
2018-11-26T06:16:45.807Z,20.84
2018-11-26T06:19:10.900Z,20.83
2018-11-26T06:21:36.861Z,20.83
2018-11-26T06:24:02.932Z,20.82
2018-11-26T06:26:28.904Z,20.82
2018-11-26T06:28:54.890Z,20.82
2018-11-26T06:31:20.970Z,20.82
2018-11-26T06:33:46.918Z,20.81
2018-11-26T06:36:12.868Z,20.81
2018-11-26T06:38:38.913Z,20.81
2018-11-26T06:41:04.862Z,20.81
2018-11-26T06:43:30.833Z,20.82
2018-11-26T06:45:56.795Z,20.82
2018-11-26T06:48:22.776Z,20.82
2018-11-26T06:50:48.740Z,20.82
2018-11-26T06:53:14.747Z,20.80
2018-11-26T06:55:40.713Z,20.80
2018-11-26T06:58:06.679Z,20.81
2018-11-26T07:00:32.659Z,20.84
2018-11-26T07:02:58.717Z,20.84
2018-11-26T07:05:24.680Z,20.85
2018-11-26T07:07:50.654Z,20.86
2018-11-26T07:10:16.608Z,20.84
2018-11-26T07:12:42.549Z,20.81
2018-11-26T07:15:08.494Z,20.84
2018-11-26T07:17:34.484Z,20.84
2018-11-26T07:20:00.449Z,20.85
2018-11-26T07:22:26.428Z,20.83
2018-11-26T07:24:52.376Z,20.84
2018-11-26T07:27:18.343Z,20.84
2018-11-26T07:29:44.288Z,20.83
2018-11-26T07:32:10.353Z,20.85
2018-11-26T07:34:36.303Z,20.85
2018-11-26T07:37:02.253Z,20.86
2018-11-26T07:39:28.203Z,20.86
2018-11-26T07:41:54.173Z,20.84
2018-11-26T07:44:20.131Z,20.86
2018-11-26T07:46:46.097Z,20.90
2018-11-26T07:49:12.113Z,20.91
2018-11-26T07:51:38.126Z,20.93
2018-11-26T07:54:04.151Z,20.92
2018-11-26T07:56:30.106Z,20.90
2018-11-26T07:58:56.086Z,20.88
2018-11-26T08:01:22.255Z,20.89
2018-11-26T08:03:48.274Z,20.88
2018-11-26T08:06:14.299Z,20.88
2018-11-26T08:08:40.249Z,20.89
2018-11-26T08:11:06.243Z,20.88
2018-11-26T08:13:32.202Z,20.89
2018-11-26T08:15:58.173Z,20.87
2018-11-26T08:18:24.151Z,20.89
2018-11-26T08:20:50.110Z,20.86
2018-11-26T08:23:16.065Z,20.88
2018-11-26T08:25:42.124Z,20.88
2018-11-26T08:28:08.069Z,20.89
2018-11-26T08:30:34.020Z,20.89
2018-11-26T08:33:00.032Z,20.90
2018-11-26T08:35:25.981Z,20.91
2018-11-26T08:37:51.948Z,20.92
2018-11-26T08:40:17.912Z,20.92
2018-11-26T08:42:43.864Z,20.92
2018-11-26T08:45:09.808Z,20.91
2018-11-26T08:47:35.820Z,20.94
2018-11-26T08:50:01.766Z,20.95
2018-11-26T08:52:27.723Z,20.95
2018-11-26T08:54:53.689Z,20.95
2018-11-26T08:57:19.639Z,20.93
2018-11-26T08:59:45.602Z,20.94
2018-11-26T09:02:11.549Z,20.94
2018-11-26T09:04:37.508Z,20.94
2018-11-26T09:07:03.492Z,20.94
2018-11-26T09:09:32.918Z,20.95
2018-11-26T09:11:55.423Z,20.94
2018-11-26T09:14:21.396Z,20.95
2018-11-26T09:16:47.368Z,20.94
2018-11-26T09:19:13.320Z,20.96
2018-11-26T09:21:39.275Z,20.97
2018-11-26T09:24:05.252Z,21.01
2018-11-26T09:26:31.214Z,21.01
2018-11-26T09:28:57.186Z,21.02
2018-11-26T09:31:23.157Z,21.03
2018-11-26T09:33:49.115Z,21.01
2018-11-26T09:36:15.120Z,21.00
2018-11-26T09:38:41.074Z,21.01
2018-11-26T09:41:07.022Z,21.01
2018-11-26T09:43:32.981Z,21.03
2018-11-26T09:45:58.928Z,21.03
2018-11-26T09:48:24.916Z,21.01
2018-11-26T09:50:50.944Z,21.02
2018-11-26T09:53:16.991Z,21.01
2018-11-26T09:55:42.941Z,21.00
2018-11-26T09:58:08.900Z,21.00
2018-11-26T10:00:34.853Z,21.00
2018-11-26T10:03:00.937Z,21.00
2018-11-26T10:05:26.881Z,20.99
2018-11-26T10:07:52.862Z,21.01
2018-11-26T10:10:18.819Z,21.05
2018-11-26T10:12:44.784Z,21.03
2018-11-26T10:15:10.759Z,21.03
2018-11-26T10:17:36.716Z,21.05
2018-11-26T10:20:02.689Z,21.03
2018-11-26T10:22:28.641Z,21.02
2018-11-26T10:24:54.623Z,21.01
2018-11-26T10:27:20.577Z,21.02
2018-11-26T10:29:46.544Z,21.02
2018-11-26T10:32:12.515Z,21.00
2018-11-26T10:34:38.465Z,21.00
2018-11-26T10:37:04.428Z,21.00
2018-11-26T10:39:30.462Z,21.00
2018-11-26T10:41:56.480Z,21.00
2018-11-26T10:44:22.629Z,20.98
2018-11-26T10:46:48.610Z,20.97
2018-11-26T10:49:14.556Z,21.00
2018-11-26T10:51:40.543Z,20.99
2018-11-26T10:54:06.506Z,20.99
2018-11-26T10:56:32.445Z,21.01
2018-11-26T10:58:58.396Z,21.03
2018-11-26T11:01:24.351Z,21.05
2018-11-26T11:03:50.313Z,21.06
2018-11-26T11:06:16.283Z,21.06
2018-11-26T11:08:42.253Z,21.07
2018-11-26T11:11:08.274Z,21.08
2018-11-26T11:13:34.222Z,21.09
2018-11-26T11:16:00.281Z,21.09
2018-11-26T11:18:26.233Z,21.13
2018-11-26T11:20:52.229Z,21.13
2018-11-26T11:23:18.204Z,21.14
2018-11-26T11:25:44.186Z,21.15
2018-11-26T11:28:10.162Z,21.16
2018-11-26T11:30:36.176Z,21.17
2018-11-26T11:35:27.319Z,21.17
2018-11-26T11:37:53.299Z,21.19
2018-11-26T11:40:19.259Z,21.19
2018-11-26T11:42:45.216Z,21.22
2018-11-26T11:45:11.204Z,21.25
2018-11-26T11:47:37.169Z,21.27
2018-11-26T11:50:03.121Z,21.29
2018-11-26T11:52:29.084Z,21.30
2018-11-26T11:54:55.049Z,21.29
2018-11-26T11:57:21.011Z,21.29
2018-11-26T11:59:47.066Z,21.27
2018-11-26T12:02:16.058Z,21.24
2018-11-26T12:04:39.150Z,21.23
2018-11-26T12:07:05.103Z,21.16
2018-11-26T12:09:31.066Z,21.15
2018-11-26T12:11:57.033Z,21.18
2018-11-26T12:14:22.987Z,21.15
2018-11-26T12:16:48.950Z,21.13
2018-11-26T12:19:14.914Z,21.12
2018-11-26T12:21:40.874Z,21.10
2018-11-26T12:24:06.835Z,21.09
2018-11-26T12:26:32.785Z,21.08
2018-11-26T12:28:58.741Z,21.09
2018-11-26T12:31:24.708Z,21.11
2018-11-26T12:33:50.672Z,21.10
2018-11-26T12:36:16.639Z,21.09
2018-11-26T12:38:42.697Z,21.08
2018-11-26T12:41:08.643Z,21.08
2018-11-26T12:43:34.600Z,21.08
2018-11-26T12:46:00.654Z,21.09
2018-11-26T12:48:26.726Z,21.07
2018-11-26T12:50:52.681Z,21.07
2018-11-26T12:53:18.725Z,21.07
2018-11-26T12:55:44.696Z,21.08
2018-11-26T12:58:10.645Z,21.07
2018-11-26T13:00:36.661Z,21.06
2018-11-26T13:03:02.623Z,21.05
2018-11-26T13:05:28.613Z,21.06
2018-11-26T13:07:54.656Z,21.05
2018-11-26T13:10:20.617Z,21.05
2018-11-26T13:12:46.611Z,21.04
2018-11-26T13:15:12.637Z,21.03
2018-11-26T13:17:38.592Z,21.07
2018-11-26T13:20:04.546Z,21.09
2018-11-26T13:22:30.500Z,21.09
2018-11-26T13:24:56.694Z,21.09
2018-11-26T13:27:22.653Z,21.09
2018-11-26T13:29:48.619Z,21.09
2018-11-26T13:32:14.649Z,21.06
2018-11-26T13:34:40.631Z,21.06
2018-11-26T13:37:06.683Z,21.05
2018-11-26T13:39:32.640Z,21.06
2018-11-26T13:41:58.608Z,21.06
2018-11-26T13:44:24.559Z,21.05
2018-11-26T13:46:50.534Z,21.05
2018-11-26T13:49:16.494Z,21.05
2018-11-26T13:51:42.465Z,21.05
2018-11-26T13:54:08.424Z,21.05
2018-11-26T13:56:34.518Z,21.06
2018-11-26T13:59:01.586Z,21.07
2018-11-26T14:01:27.549Z,21.07
2018-11-26T14:03:53.505Z,21.07
2018-11-26T14:06:19.493Z,21.08
2018-11-26T14:08:45.459Z,21.09
2018-11-26T14:11:11.438Z,21.06
2018-11-26T14:13:37.389Z,21.06
2018-11-26T14:16:03.376Z,21.05
2018-11-26T14:18:29.510Z,21.05
2018-11-26T14:20:55.514Z,21.04
2018-11-26T14:23:21.479Z,21.03
2018-11-26T14:25:47.443Z,21.06
2018-11-26T14:28:13.436Z,21.07
2018-11-26T14:30:39.400Z,21.08
2018-11-26T14:33:05.379Z,21.08
2018-11-26T14:35:31.332Z,21.10
2018-11-26T14:37:57.292Z,21.13
2018-11-26T14:40:23.275Z,21.16
2018-11-26T14:42:49.270Z,21.15
2018-11-26T14:45:15.294Z,21.17
2018-11-26T14:47:41.254Z,21.19
2018-11-26T14:50:07.338Z,21.23
2018-11-26T14:52:33.442Z,21.26
2018-11-26T14:54:59.440Z,21.28
2018-11-26T14:57:25.413Z,21.30
2018-11-26T14:59:51.531Z,21.32
2018-11-26T15:02:17.495Z,21.33
2018-11-26T15:04:43.448Z,21.34
2018-11-26T15:07:09.454Z,21.34
2018-11-26T15:09:35.411Z,21.35
2018-11-26T15:12:01.369Z,21.34
2018-11-26T15:14:27.336Z,21.33
2018-11-26T15:16:53.320Z,21.32
2018-11-26T15:19:19.236Z,21.29
2018-11-26T15:21:45.261Z,21.27
2018-11-26T15:24:11.304Z,21.26
2018-11-26T15:26:37.267Z,21.24
2018-11-26T15:29:03.213Z,21.20
2018-11-26T15:31:29.191Z,21.20
2018-11-26T15:33:55.156Z,21.18
2018-11-26T15:36:21.116Z,21.18
2018-11-26T15:38:47.076Z,21.19
2018-11-26T15:41:13.032Z,21.22
2018-11-26T15:43:39.027Z,21.23
2018-11-26T15:46:05.005Z,21.20
2018-11-26T15:48:31.036Z,21.17
2018-11-26T15:50:56.999Z,21.17
2018-11-26T15:53:22.957Z,21.14
2018-11-26T15:55:49.007Z,21.12
2018-11-26T15:58:15.002Z,21.12
2018-11-26T16:00:40.994Z,21.11
2018-11-26T16:03:06.954Z,21.08
2018-11-26T16:05:32.939Z,21.08
2018-11-26T16:07:59.005Z,21.09
2018-11-26T16:10:24.954Z,21.08
2018-11-26T16:12:51.032Z,21.07
2018-11-26T16:15:17.035Z,21.08
2018-11-26T16:17:43.227Z,21.09
2018-11-26T16:20:09.198Z,21.11
2018-11-26T16:22:35.163Z,21.14
2018-11-26T16:25:01.147Z,21.16
2018-11-26T16:27:27.246Z,21.18
2018-11-26T16:29:53.232Z,21.19
2018-11-26T16:32:19.207Z,21.19
2018-11-26T16:34:45.171Z,21.22
2018-11-26T16:37:11.138Z,21.23
2018-11-26T16:39:37.138Z,21.22
2018-11-26T16:42:03.137Z,21.24
2018-11-26T16:44:29.204Z,21.23
2018-11-26T16:46:55.234Z,21.22
2018-11-26T16:49:21.244Z,21.21
2018-11-26T16:51:47.207Z,21.20
2018-11-26T16:54:13.164Z,21.19
2018-11-26T16:56:39.106Z,21.19
2018-11-26T16:59:05.075Z,21.17
2018-11-26T17:01:31.042Z,21.18
2018-11-26T17:03:56.990Z,21.17
2018-11-26T17:06:22.958Z,21.17
2018-11-26T17:08:48.912Z,21.18
2018-11-26T17:11:14.868Z,21.17
2018-11-26T17:13:40.933Z,21.17
2018-11-26T17:16:07.776Z,21.20
2018-11-26T17:18:32.912Z,21.19
2018-11-26T17:20:58.901Z,21.19
2018-11-26T17:23:24.855Z,21.18
2018-11-26T17:25:50.823Z,21.17
2018-11-26T17:28:16.805Z,21.15
2018-11-26T17:30:42.824Z,21.16
2018-11-26T17:33:08.858Z,21.16
2018-11-26T17:35:34.832Z,21.13
2018-11-26T17:38:00.802Z,21.14
2018-11-26T17:40:26.778Z,21.14
2018-11-26T17:42:52.772Z,21.15
2018-11-26T17:45:18.753Z,21.15
2018-11-26T17:47:44.714Z,21.16
2018-11-26T17:50:10.687Z,21.17
2018-11-26T17:52:36.637Z,21.17
2018-11-26T17:55:02.597Z,21.16
2018-11-26T17:57:28.563Z,21.16
2018-11-26T17:59:54.536Z,21.17
2018-11-26T18:02:20.622Z,21.19
2018-11-26T18:04:46.582Z,21.21
2018-11-26T18:07:12.558Z,21.20
2018-11-26T18:09:38.525Z,21.20
2018-11-26T18:12:04.508Z,21.22
2018-11-26T18:14:30.478Z,21.23
2018-11-26T18:16:56.444Z,21.22
2018-11-26T18:19:22.406Z,21.19
2018-11-26T18:21:48.410Z,21.18
2018-11-26T18:24:14.361Z,21.17
2018-11-26T18:26:40.332Z,21.18
2018-11-26T18:29:06.281Z,21.16
2018-11-26T18:31:32.260Z,21.18
2018-11-26T18:33:58.228Z,21.21
2018-11-26T18:36:24.198Z,21.18
2018-11-26T18:38:50.208Z,21.20
2018-11-26T18:41:16.191Z,21.22
2018-11-26T18:43:42.237Z,21.24
2018-11-26T18:46:08.222Z,21.24
2018-11-26T18:48:34.230Z,21.27
2018-11-26T18:51:00.198Z,21.26
2018-11-26T18:53:26.164Z,21.26
2018-11-26T18:55:52.218Z,21.28
2018-11-26T18:58:18.176Z,21.30
2018-11-26T19:00:44.148Z,21.30
2018-11-26T19:03:10.133Z,21.31
2018-11-26T19:05:36.218Z,21.31
2018-11-26T19:08:02.262Z,21.32
2018-11-26T19:10:28.298Z,21.33
2018-11-26T19:12:54.311Z,21.32
2018-11-26T19:15:20.269Z,21.30
2018-11-26T19:17:46.292Z,21.31
2018-11-26T19:20:12.291Z,21.29
2018-11-26T19:22:38.268Z,21.30
2018-11-26T19:25:04.370Z,21.28
2018-11-26T19:27:30.329Z,21.28
2018-11-26T19:29:56.287Z,21.28
2018-11-26T19:32:22.649Z,21.25
2018-11-26T19:34:48.231Z,21.27
2018-11-26T19:37:14.221Z,21.28
2018-11-26T19:39:40.319Z,21.27
2018-11-26T19:42:06.403Z,21.27
2018-11-26T19:44:33.404Z,21.27
2018-11-26T19:46:59.421Z,21.27
2018-11-26T19:49:25.396Z,21.25
2018-11-26T19:51:51.370Z,21.26
2018-11-26T19:54:17.364Z,21.26
2018-11-26T19:56:43.327Z,21.26
2018-11-26T19:59:09.299Z,21.26
2018-11-26T20:01:35.302Z,21.25
2018-11-26T20:04:01.344Z,21.23
2018-11-26T20:06:27.318Z,21.23
2018-11-26T20:08:53.332Z,21.22
2018-11-26T20:11:19.363Z,21.22
2018-11-26T20:13:45.394Z,21.18
2018-11-26T20:16:11.358Z,21.22
2018-11-26T20:18:37.412Z,21.18
2018-11-26T20:21:03.482Z,21.20
2018-11-26T20:23:29.522Z,21.23
2018-11-26T20:25:55.489Z,21.22
2018-11-26T20:28:21.514Z,21.22
2018-11-26T20:30:47.559Z,21.23
2018-11-26T20:33:13.502Z,21.22
2018-11-26T20:35:39.476Z,21.22
2018-11-26T20:38:05.447Z,21.22
2018-11-26T20:40:31.459Z,21.23
2018-11-26T20:42:57.501Z,21.22
2018-11-26T20:45:23.470Z,21.22
2018-11-26T20:47:49.442Z,21.19
2018-11-26T20:50:15.409Z,21.18
2018-11-26T20:52:41.613Z,21.18
2018-11-26T20:55:07.651Z,21.19
2018-11-26T20:57:33.611Z,21.19
2018-11-26T20:59:59.579Z,21.20
2018-11-26T21:02:25.574Z,21.19
2018-11-26T21:04:51.545Z,21.19
2018-11-26T21:07:17.513Z,21.22
2018-11-26T21:09:43.492Z,21.24
2018-11-26T21:12:09.477Z,21.25
2018-11-26T21:14:35.445Z,21.27
2018-11-26T21:17:01.472Z,21.29
2018-11-26T21:19:27.423Z,21.29
2018-11-26T21:21:53.650Z,21.30
2018-11-26T21:24:19.702Z,21.30
2018-11-26T21:26:45.845Z,21.30
2018-11-26T21:29:11.833Z,21.31
2018-11-26T21:31:37.813Z,21.32
2018-11-26T21:34:03.782Z,21.31
2018-11-26T21:36:29.751Z,21.29
2018-11-26T21:38:55.748Z,21.29
2018-11-26T21:41:21.740Z,21.29
2018-11-26T21:43:47.727Z,21.29
2018-11-26T21:46:13.708Z,21.29
2018-11-26T21:48:39.665Z,21.28
2018-11-26T21:51:05.818Z,21.27
2018-11-26T21:53:31.787Z,21.28
2018-11-26T21:55:57.856Z,21.28
2018-11-26T21:58:23.835Z,21.26
2018-11-26T22:00:49.824Z,21.26
2018-11-26T22:03:15.841Z,21.22
2018-11-26T22:05:41.815Z,21.25
2018-11-26T22:08:07.837Z,21.24
2018-11-26T22:10:33.821Z,21.22
2018-11-26T22:12:59.794Z,21.23
2018-11-26T22:15:25.887Z,21.21
2018-11-26T22:17:51.905Z,21.19
2018-11-26T22:20:17.854Z,21.16
2018-11-26T22:22:43.826Z,21.14
2018-11-26T22:25:09.802Z,21.13
2018-11-26T22:27:35.830Z,21.13
2018-11-26T22:30:01.798Z,21.11
2018-11-26T22:32:27.763Z,21.11
2018-11-26T22:34:53.713Z,21.10
2018-11-26T22:37:19.667Z,21.08
2018-11-26T22:39:45.614Z,21.07
2018-11-26T22:42:11.583Z,21.07
2018-11-26T22:44:37.630Z,21.10
2018-11-26T22:47:03.669Z,21.08
2018-11-26T22:49:29.822Z,21.08
2018-11-26T22:51:55.785Z,21.08
2018-11-26T22:54:21.742Z,21.09
2018-11-26T22:56:47.718Z,21.06
2018-11-26T22:59:13.698Z,21.07
2018-11-26T23:01:39.674Z,21.06
2018-11-26T23:04:05.634Z,21.06
2018-11-26T23:06:31.662Z,21.04
2018-11-26T23:08:57.621Z,21.04
2018-11-26T23:11:23.607Z,21.02
2018-11-26T23:13:49.578Z,21.00
2018-11-26T23:16:15.541Z,20.99
2018-11-26T23:18:41.663Z,20.98
2018-11-26T23:21:07.905Z,20.97
2018-11-26T23:23:33.865Z,20.96
2018-11-26T23:25:59.891Z,20.96
2018-11-26T23:28:26.694Z,20.96
2018-11-26T23:30:52.661Z,20.96
2018-11-26T23:33:18.605Z,20.96
2018-11-26T23:35:44.590Z,20.93
2018-11-26T23:38:10.666Z,20.95
2018-11-26T23:40:36.704Z,20.97
2018-11-26T23:43:02.680Z,20.98
2018-11-26T23:45:28.626Z,20.99
2018-11-26T23:47:54.691Z,21.02
2018-11-26T23:50:20.647Z,21.03
2018-11-26T23:52:46.749Z,21.03
2018-11-26T23:55:12.939Z,21.03
2018-11-26T23:57:38.982Z,21.06
